createdAt,value
2019-05-09T00:01:44.447Z,9.00
2019-05-09T00:04:17.227Z,9.00
2019-05-09T00:06:46.901Z,9.00
2019-05-09T00:09:16.567Z,8.90
2019-05-09T00:11:46.302Z,8.90
2019-05-09T00:14:15.974Z,8.90
2019-05-09T00:16:45.617Z,8.90
2019-05-09T00:19:15.245Z,8.80
2019-05-09T00:21:46.479Z,8.80
2019-05-09T00:24:17.148Z,8.80
2019-05-09T00:26:46.718Z,8.70
2019-05-09T00:29:19.042Z,8.70
2019-05-09T00:31:50.290Z,8.70
2019-05-09T00:34:23.399Z,8.70
2019-05-09T00:36:53.971Z,8.70
2019-05-09T00:39:29.860Z,8.60
2019-05-09T00:42:00.624Z,8.60
2019-05-09T00:44:33.879Z,8.60
2019-05-09T00:47:04.711Z,8.50
2019-05-09T00:49:34.392Z,8.50
2019-05-09T00:52:04.067Z,8.50
2019-05-09T00:54:33.756Z,8.50
2019-05-09T00:57:03.926Z,8.40
2019-05-09T00:59:33.594Z,8.40
2019-05-09T01:02:03.972Z,8.40
2019-05-09T01:04:34.099Z,8.30
2019-05-09T01:07:03.791Z,8.30
2019-05-09T01:09:33.594Z,8.30
2019-05-09T01:12:04.083Z,8.30
2019-05-09T01:14:34.165Z,8.20
2019-05-09T01:17:04.308Z,8.20
2019-05-09T01:19:34.355Z,8.20
2019-05-09T01:22:03.995Z,8.20
2019-05-09T01:24:33.962Z,8.20
2019-05-09T01:27:03.870Z,8.20
2019-05-09T01:32:23.695Z,8.10
2019-05-09T01:34:53.381Z,8.10
2019-05-09T01:37:23.786Z,8.10
2019-05-09T01:39:53.684Z,8.10
2019-05-09T01:42:23.404Z,8.10
2019-05-09T01:44:53.359Z,8.10
2019-05-09T01:47:23.572Z,8.00
2019-05-09T01:49:53.834Z,8.00
2019-05-09T01:52:23.880Z,8.00
2019-05-09T01:54:54.157Z,8.00
2019-05-09T01:57:25.131Z,8.00
2019-05-09T01:59:54.817Z,8.00
2019-05-09T02:02:24.483Z,8.00
2019-05-09T02:04:54.227Z,7.90
2019-05-09T02:07:24.000Z,7.90
2019-05-09T02:09:54.067Z,7.90
2019-05-09T02:12:24.602Z,7.90
2019-05-09T02:14:56.034Z,7.90
2019-05-09T02:17:27.269Z,7.90
2019-05-09T02:19:56.889Z,7.90
2019-05-09T02:22:28.186Z,7.90
2019-05-09T02:24:57.838Z,7.80
2019-05-09T02:27:27.534Z,7.90
2019-05-09T02:29:57.212Z,7.80
2019-05-09T02:32:26.928Z,7.80
2019-05-09T02:34:57.791Z,7.80
2019-05-09T02:37:28.758Z,7.80
2019-05-09T02:39:59.302Z,7.80
2019-05-09T02:42:29.132Z,7.80
2019-05-09T02:44:59.450Z,7.80
2019-05-09T02:47:30.487Z,7.80
2019-05-09T02:50:00.152Z,7.80
2019-05-09T02:52:29.806Z,7.80
2019-05-09T02:54:59.492Z,7.70
2019-05-09T02:57:30.268Z,7.70
2019-05-09T03:00:00.094Z,7.70
2019-05-09T03:02:38.384Z,7.70
2019-05-09T03:05:08.770Z,7.70
2019-05-09T03:07:40.722Z,7.70
2019-05-09T03:10:10.331Z,7.70
2019-05-09T03:12:40.132Z,7.70
2019-05-09T03:15:10.100Z,7.70
2019-05-09T03:17:39.785Z,7.70
2019-05-09T03:20:11.326Z,7.70
2019-05-09T03:22:41.037Z,7.70
2019-05-09T03:25:11.365Z,7.70
2019-05-09T03:27:42.658Z,7.70
2019-05-09T03:30:13.891Z,7.70
2019-05-09T03:32:43.552Z,7.70
2019-05-09T03:35:13.393Z,7.70
2019-05-09T03:37:43.069Z,7.70
2019-05-09T03:40:12.846Z,7.60
2019-05-09T03:42:43.834Z,7.60
2019-05-09T03:45:15.456Z,7.60
2019-05-09T03:47:47.814Z,7.60
2019-05-09T03:50:17.989Z,7.60
2019-05-09T03:52:47.932Z,7.60
2019-05-09T03:55:19.339Z,7.50
2019-05-09T03:57:50.641Z,7.50
2019-05-09T04:00:20.370Z,7.50
2019-05-09T04:02:53.748Z,7.50
2019-05-09T04:05:23.380Z,7.50
2019-05-09T04:07:53.041Z,7.50
2019-05-09T04:10:22.591Z,7.50
2019-05-09T04:12:56.221Z,7.50
2019-05-09T04:15:23.517Z,7.50
2019-05-09T04:17:53.188Z,7.50
2019-05-09T04:20:22.759Z,7.50
2019-05-09T04:22:52.398Z,7.50
2019-05-09T04:25:23.756Z,7.50
2019-05-09T04:27:53.714Z,7.40
2019-05-09T04:30:23.272Z,7.40
2019-05-09T04:32:52.865Z,7.40
2019-05-09T04:35:22.493Z,7.40
2019-05-09T04:37:52.180Z,7.40
2019-05-09T04:40:23.029Z,7.40
2019-05-09T04:43:07.870Z,7.50
2019-05-09T04:45:28.366Z,7.50
2019-05-09T04:47:57.897Z,7.50
2019-05-09T04:50:28.005Z,7.50
2019-05-09T04:52:58.081Z,7.50
2019-05-09T04:55:29.561Z,7.50
2019-05-09T04:58:00.248Z,7.60
2019-05-09T05:00:31.742Z,7.50
2019-05-09T05:03:01.413Z,7.60
2019-05-09T05:05:30.975Z,7.60
2019-05-09T05:08:00.636Z,7.60
2019-05-09T05:10:30.224Z,7.60
2019-05-09T05:12:59.858Z,7.60
2019-05-09T05:15:29.491Z,7.60
2019-05-09T05:17:59.107Z,7.70
2019-05-09T05:20:30.393Z,7.70
2019-05-09T05:23:01.749Z,7.70
2019-05-09T05:25:32.393Z,7.70
2019-05-09T05:28:02.113Z,7.70
2019-05-09T05:30:31.696Z,7.70
2019-05-09T05:33:03.053Z,7.70
2019-05-09T05:35:34.366Z,7.80
2019-05-09T05:38:04.051Z,7.80
2019-05-09T05:40:44.956Z,8.00
2019-05-09T05:43:10.723Z,8.10
2019-05-09T05:45:42.106Z,8.40
2019-05-09T05:48:13.405Z,8.50
2019-05-09T05:50:43.078Z,8.70
2019-05-09T05:53:12.699Z,8.80
2019-05-09T05:55:42.383Z,8.90
2019-05-09T05:58:12.603Z,8.90
2019-05-09T06:00:42.303Z,9.00
2019-05-09T06:03:14.852Z,9.30
2019-05-09T06:05:44.547Z,9.50
2019-05-09T06:08:14.603Z,9.90
2019-05-09T06:10:44.147Z,10.40
2019-05-09T06:13:13.793Z,10.70
2019-05-09T06:15:43.518Z,10.70
2019-05-09T06:18:13.172Z,10.90
2019-05-09T06:20:45.649Z,11.30
2019-05-09T06:23:14.572Z,11.80
2019-05-09T06:25:44.254Z,12.40
2019-05-09T06:28:13.943Z,13.10
2019-05-09T06:30:43.672Z,13.70
2019-05-09T06:33:14.992Z,14.10
2019-05-09T06:35:48.215Z,14.10
2019-05-09T06:38:19.765Z,14.30
2019-05-09T06:40:51.076Z,14.40
2019-05-09T06:43:23.917Z,14.50
2019-05-09T06:45:57.552Z,14.70
2019-05-09T06:48:28.865Z,15.00
2019-05-09T06:50:59.997Z,15.20
2019-05-09T06:53:31.304Z,15.40
2019-05-09T06:56:02.587Z,15.60
2019-05-09T06:58:35.509Z,15.70
2019-05-09T07:01:08.525Z,15.80
2019-05-09T07:03:41.477Z,15.80
2019-05-09T07:06:14.347Z,15.90
2019-05-09T07:08:47.826Z,16.00
2019-05-09T07:11:19.389Z,16.10
2019-05-09T07:13:50.784Z,16.10
2019-05-09T07:16:23.184Z,16.10
2019-05-09T07:18:54.484Z,16.00
2019-05-09T07:21:28.609Z,15.90
2019-05-09T07:24:00.065Z,15.90
2019-05-09T07:26:32.965Z,16.00
2019-05-09T07:29:04.327Z,16.10
2019-05-09T07:31:37.934Z,16.20
2019-05-09T07:34:11.220Z,16.20
2019-05-09T07:36:42.493Z,16.40
2019-05-09T07:39:13.305Z,16.40
2019-05-09T07:41:44.608Z,16.50
2019-05-09T07:44:18.006Z,16.60
2019-05-09T07:46:50.386Z,16.70
2019-05-09T07:49:21.645Z,16.70
2019-05-09T07:51:52.959Z,16.30
2019-05-09T07:54:25.660Z,16.00
2019-05-09T07:56:59.422Z,15.40
2019-05-09T07:59:30.655Z,14.90
2019-05-09T08:02:02.007Z,14.40
2019-05-09T08:04:33.344Z,14.20
2019-05-09T08:07:04.623Z,14.40
2019-05-09T08:09:38.587Z,14.70
2019-05-09T08:12:08.880Z,14.80
2019-05-09T08:14:39.023Z,15.00
2019-05-09T08:17:10.346Z,14.90
2019-05-09T08:19:41.611Z,14.60
2019-05-09T08:22:12.981Z,14.60
2019-05-09T08:24:44.269Z,14.90
2019-05-09T08:27:13.931Z,15.20
2019-05-09T08:29:47.708Z,15.60
2019-05-09T08:32:19.700Z,15.80
2019-05-09T08:34:51.099Z,15.70
2019-05-09T08:37:22.458Z,15.70
2019-05-09T08:39:53.782Z,15.80
2019-05-09T08:42:25.147Z,15.90
2019-05-09T08:44:57.623Z,15.90
2019-05-09T08:47:28.361Z,15.70
2019-05-09T08:50:01.199Z,15.40
2019-05-09T08:52:32.478Z,15.50
2019-05-09T08:55:04.579Z,15.60
2019-05-09T08:57:37.390Z,15.50
2019-05-09T09:00:08.926Z,15.30
2019-05-09T09:02:40.977Z,15.30
2019-05-09T09:05:14.028Z,15.30
2019-05-09T09:07:45.221Z,15.40
2019-05-09T09:10:15.314Z,15.50
2019-05-09T09:12:47.728Z,15.80
2019-05-09T09:15:19.359Z,16.00
2019-05-09T09:17:50.610Z,16.30
2019-05-09T09:20:21.927Z,16.50
2019-05-09T09:22:53.200Z,16.60
2019-05-09T09:25:24.487Z,16.90
2019-05-09T09:27:58.009Z,17.10
2019-05-09T09:30:29.499Z,17.30
2019-05-09T09:33:01.005Z,17.20
2019-05-09T09:35:32.323Z,17.10
2019-05-09T09:38:03.652Z,17.00
2019-05-09T09:40:35.281Z,16.90
2019-05-09T09:43:09.135Z,16.80
2019-05-09T09:45:39.429Z,16.60
2019-05-09T09:48:10.644Z,16.40
2019-05-09T09:50:41.937Z,16.40
2019-05-09T09:53:13.217Z,16.10
2019-05-09T09:55:44.488Z,15.80
2019-05-09T09:58:18.690Z,15.60
2019-05-09T10:00:50.262Z,15.50
2019-05-09T10:03:21.690Z,15.40
2019-05-09T10:05:53.039Z,15.30
2019-05-09T10:08:23.364Z,15.10
2019-05-09T10:10:53.326Z,14.90
2019-05-09T10:13:24.651Z,14.70
2019-05-09T10:15:58.682Z,14.60
2019-05-09T10:18:31.979Z,14.70
2019-05-09T10:21:04.892Z,15.20
2019-05-09T10:23:37.900Z,15.60
2019-05-09T10:26:09.025Z,16.00
2019-05-09T10:28:40.243Z,16.40
2019-05-09T10:31:11.509Z,16.80
2019-05-09T10:33:42.793Z,17.00
2019-05-09T10:36:14.025Z,17.00
2019-05-09T10:38:47.656Z,16.80
2019-05-09T10:41:18.148Z,16.50
2019-05-09T10:43:50.433Z,16.30
2019-05-09T10:46:23.360Z,16.00
2019-05-09T10:48:54.562Z,15.60
2019-05-09T10:51:24.281Z,15.40
2019-05-09T10:53:53.880Z,15.20
2019-05-09T10:56:24.541Z,14.90
2019-05-09T10:58:54.129Z,14.80
2019-05-09T11:01:23.814Z,14.70
2019-05-09T11:03:53.445Z,14.70
2019-05-09T11:06:23.181Z,14.60
2019-05-09T11:08:52.915Z,14.60
2019-05-09T11:11:22.569Z,14.60
2019-05-09T11:13:52.284Z,14.50
2019-05-09T11:16:21.884Z,14.50
2019-05-09T11:18:51.598Z,14.50
2019-05-09T11:21:21.309Z,14.50
2019-05-09T11:23:51.019Z,14.50
2019-05-09T11:26:21.764Z,14.60
2019-05-09T11:28:51.493Z,14.60
2019-05-09T11:31:21.219Z,14.70
2019-05-09T11:33:51.132Z,14.70
2019-05-09T11:36:21.357Z,14.60
2019-05-09T11:38:51.436Z,14.50
2019-05-09T11:41:21.090Z,14.40
2019-05-09T11:43:50.786Z,14.30
2019-05-09T11:46:20.332Z,14.20
2019-05-09T11:48:50.003Z,14.10
2019-05-09T11:51:22.770Z,14.00
2019-05-09T11:53:51.011Z,13.80
2019-05-09T11:56:20.633Z,13.70
2019-05-09T11:58:50.337Z,13.60
2019-05-09T12:01:19.905Z,13.50
2019-05-09T12:03:52.271Z,13.50
2019-05-09T12:06:21.989Z,13.30
2019-05-09T12:08:51.562Z,13.20
2019-05-09T12:11:22.439Z,13.10
2019-05-09T12:13:51.999Z,12.90
2019-05-09T12:16:21.497Z,12.70
2019-05-09T12:18:51.203Z,12.60
2019-05-09T12:21:20.756Z,12.60
2019-05-09T12:23:50.422Z,12.60
2019-05-09T12:26:20.076Z,12.70
2019-05-09T12:28:49.698Z,12.90
2019-05-09T12:31:20.378Z,13.20
2019-05-09T12:33:49.931Z,13.50
2019-05-09T12:36:19.621Z,13.80
2019-05-09T12:38:50.211Z,14.00
2019-05-09T12:41:21.514Z,14.10
2019-05-09T12:43:51.098Z,14.30
2019-05-09T12:46:20.695Z,14.50
2019-05-09T12:48:50.287Z,14.60
2019-05-09T12:51:19.909Z,14.90
2019-05-09T12:53:49.568Z,14.90
2019-05-09T12:56:19.237Z,15.10
2019-05-09T12:58:48.911Z,15.10
2019-05-09T13:01:19.005Z,15.10
2019-05-09T13:03:49.092Z,15.30
2019-05-09T13:06:19.975Z,15.60
2019-05-09T13:08:49.960Z,15.80
2019-05-09T13:11:20.182Z,16.10
2019-05-09T13:13:50.311Z,16.20
2019-05-09T13:16:21.647Z,16.20
2019-05-09T13:18:52.973Z,16.20
2019-05-09T13:21:22.697Z,16.20
2019-05-09T13:23:53.272Z,16.40
2019-05-09T13:26:22.926Z,16.60
2019-05-09T13:28:52.561Z,16.80
2019-05-09T13:31:22.223Z,17.10
2019-05-09T13:33:52.022Z,17.30
2019-05-09T13:36:25.242Z,17.50
2019-05-09T13:39:03.170Z,17.50
2019-05-09T13:41:26.227Z,17.30
2019-05-09T13:43:59.074Z,17.20
2019-05-09T13:46:28.215Z,17.10
2019-05-09T13:49:11.111Z,17.10
2019-05-09T13:51:29.464Z,17.10
2019-05-09T13:53:59.434Z,17.20
2019-05-09T13:56:29.086Z,17.10
2019-05-09T13:58:58.866Z,17.10
2019-05-09T14:01:28.500Z,17.00
2019-05-09T14:03:58.185Z,16.90
2019-05-09T14:06:27.933Z,17.00
2019-05-09T14:08:59.732Z,17.20
2019-05-09T14:11:29.409Z,17.30
2019-05-09T14:13:59.020Z,17.40
2019-05-09T14:16:28.978Z,17.30
2019-05-09T14:19:09.619Z,17.10
2019-05-09T14:21:30.029Z,17.20
2019-05-09T14:24:11.436Z,17.40
2019-05-09T14:26:32.604Z,17.70
2019-05-09T14:29:02.245Z,17.80
2019-05-09T14:31:32.639Z,17.80
2019-05-09T14:34:02.453Z,17.80
2019-05-09T14:36:32.166Z,17.60
2019-05-09T14:39:01.848Z,17.50
2019-05-09T14:41:33.092Z,17.30
2019-05-09T14:44:02.885Z,17.10
2019-05-09T14:46:32.556Z,17.00
2019-05-09T14:49:02.285Z,16.80
2019-05-09T14:51:32.004Z,16.70
2019-05-09T14:54:01.726Z,16.50
2019-05-09T14:56:31.406Z,16.40
2019-05-09T14:59:01.137Z,16.30
2019-05-09T15:01:30.818Z,16.30
2019-05-09T15:04:00.617Z,16.30
2019-05-09T15:06:30.248Z,16.50
2019-05-09T15:08:59.909Z,16.70
2019-05-09T15:11:31.658Z,16.70
2019-05-09T15:14:02.563Z,16.60
2019-05-09T15:16:38.880Z,16.40
2019-05-09T15:19:12.908Z,16.20
2019-05-09T15:21:48.460Z,15.90
2019-05-09T15:24:19.248Z,15.30
2019-05-09T15:26:49.320Z,14.60
2019-05-09T15:29:18.993Z,13.90
2019-05-09T15:31:54.339Z,13.40
2019-05-09T15:34:20.072Z,13.00
2019-05-09T15:36:49.861Z,13.00
2019-05-09T15:39:19.574Z,13.20
2019-05-09T15:41:49.332Z,13.30
2019-05-09T15:44:18.953Z,13.40
2019-05-09T15:46:50.297Z,13.50
2019-05-09T15:49:21.199Z,13.50
2019-05-09T15:51:51.358Z,13.50
2019-05-09T15:54:20.959Z,13.60
2019-05-09T15:56:51.238Z,13.80
2019-05-09T15:59:20.946Z,14.00
2019-05-09T16:01:51.860Z,14.30
2019-05-09T16:04:22.805Z,14.50
2019-05-09T16:06:52.816Z,14.70
2019-05-09T16:09:22.597Z,14.90
2019-05-09T16:11:52.257Z,15.00
2019-05-09T16:14:21.958Z,15.10
2019-05-09T16:16:51.778Z,15.20
2019-05-09T16:19:21.458Z,15.30
2019-05-09T16:21:51.099Z,15.40
2019-05-09T16:24:20.845Z,15.40
2019-05-09T16:26:53.501Z,15.40
2019-05-09T16:29:23.249Z,15.40
2019-05-09T16:31:52.890Z,15.40
2019-05-09T16:34:22.555Z,15.40
2019-05-09T16:36:53.506Z,15.40
2019-05-09T16:39:23.139Z,15.30
2019-05-09T16:41:52.838Z,15.30
2019-05-09T16:44:22.606Z,15.30
2019-05-09T16:46:52.293Z,15.30
2019-05-09T16:49:26.024Z,15.20
2019-05-09T16:51:53.298Z,15.00
2019-05-09T16:54:28.323Z,14.90
2019-05-09T16:57:00.007Z,14.70
2019-05-09T16:59:29.390Z,14.50
2019-05-09T17:01:59.069Z,14.30
2019-05-09T17:04:29.895Z,14.20
2019-05-09T17:06:59.547Z,14.00
2019-05-09T17:09:29.210Z,13.90
2019-05-09T17:11:58.758Z,13.90
2019-05-09T17:14:28.434Z,13.90
2019-05-09T17:17:00.003Z,13.80
2019-05-09T17:19:29.278Z,13.80
2019-05-09T17:22:00.596Z,13.70
2019-05-09T17:24:30.238Z,13.60
2019-05-09T17:26:59.938Z,13.50
2019-05-09T17:29:29.731Z,13.50
2019-05-09T17:31:59.379Z,13.50
2019-05-09T17:34:29.016Z,13.40
2019-05-09T17:36:58.641Z,13.40
2019-05-09T17:39:28.298Z,13.40
2019-05-09T17:41:58.319Z,13.40
2019-05-09T17:44:28.536Z,13.50
2019-05-09T17:46:58.300Z,13.50
2019-05-09T17:49:28.171Z,13.60
2019-05-09T17:51:58.529Z,13.70
2019-05-09T17:54:28.906Z,13.70
2019-05-09T17:56:58.902Z,13.70
2019-05-09T17:59:29.182Z,13.80
2019-05-09T18:01:59.303Z,13.70
2019-05-09T18:04:29.067Z,13.70
2019-05-09T18:06:58.820Z,13.60
2019-05-09T18:09:28.789Z,13.60
2019-05-09T18:11:58.744Z,13.60
2019-05-09T18:14:28.629Z,13.60
2019-05-09T18:16:59.615Z,13.60
2019-05-09T18:19:29.522Z,13.50
2019-05-09T18:21:59.384Z,13.50
2019-05-09T18:24:29.010Z,13.50
2019-05-09T18:26:58.684Z,13.50
2019-05-09T18:29:28.681Z,13.50
2019-05-09T18:31:59.930Z,13.50
2019-05-09T18:34:32.882Z,13.50
2019-05-09T18:37:03.063Z,13.40
2019-05-09T18:39:32.646Z,13.40
2019-05-09T18:42:02.292Z,13.30
2019-05-09T18:44:32.036Z,13.30
2019-05-09T18:47:01.703Z,13.30
2019-05-09T18:49:31.403Z,13.30
2019-05-09T18:52:03.792Z,13.30
2019-05-09T18:54:32.324Z,13.30
2019-05-09T18:57:02.022Z,13.30
2019-05-09T18:59:31.585Z,13.30
2019-05-09T19:02:01.236Z,13.30
2019-05-09T19:04:30.834Z,13.30
2019-05-09T19:07:00.444Z,13.20
2019-05-09T19:09:30.023Z,13.20
2019-05-09T19:11:59.684Z,13.10
2019-05-09T19:14:29.270Z,13.10
2019-05-09T19:17:00.497Z,13.10
2019-05-09T19:19:31.746Z,13.00
2019-05-09T19:22:04.987Z,13.00
2019-05-09T19:24:34.111Z,13.00
2019-05-09T19:27:03.656Z,13.00
2019-05-09T19:29:33.303Z,12.90
2019-05-09T19:32:02.905Z,12.90
2019-05-09T19:34:33.671Z,12.90
2019-05-09T19:37:06.765Z,12.90
2019-05-09T19:39:36.412Z,12.90
2019-05-09T19:42:06.007Z,12.90
2019-05-09T19:44:36.900Z,12.80
2019-05-09T19:47:06.581Z,12.80
2019-05-09T19:49:36.201Z,12.80
2019-05-09T19:52:05.826Z,12.70
2019-05-09T19:54:35.297Z,12.70
2019-05-09T19:57:04.949Z,12.60
2019-05-09T19:59:34.648Z,12.50
2019-05-09T20:02:04.311Z,12.40
2019-05-09T20:04:33.934Z,12.30
2019-05-09T20:07:03.511Z,12.20
2019-05-09T20:09:34.697Z,12.20
2019-05-09T20:12:07.780Z,12.10
2019-05-09T20:14:39.080Z,12.10
2019-05-09T20:17:09.040Z,12.20
2019-05-09T20:19:38.730Z,12.20
2019-05-09T20:22:08.387Z,12.30
2019-05-09T20:24:37.974Z,12.30
2019-05-09T20:27:07.530Z,12.30
2019-05-09T20:29:37.175Z,12.30
2019-05-09T20:32:06.795Z,12.30
2019-05-09T20:34:36.498Z,12.30
2019-05-09T20:37:06.249Z,12.30
2019-05-09T20:39:36.059Z,12.30
2019-05-09T20:42:05.845Z,12.30
2019-05-09T20:44:35.721Z,12.30
2019-05-09T20:47:05.500Z,12.30
2019-05-09T20:49:36.373Z,12.20
2019-05-09T20:52:06.165Z,12.20
2019-05-09T20:54:35.949Z,12.20
2019-05-09T20:57:05.728Z,12.10
2019-05-09T20:59:35.478Z,12.10
2019-05-09T21:02:05.337Z,12.10
2019-05-09T21:04:38.339Z,12.00
2019-05-09T21:07:10.846Z,12.00
2019-05-09T21:09:40.723Z,12.00
2019-05-09T21:12:11.221Z,12.00
2019-05-09T21:14:41.290Z,12.00
2019-05-09T21:17:11.179Z,12.00
2019-05-09T21:19:41.033Z,12.00
2019-05-09T21:22:10.917Z,12.10
2019-05-09T21:24:40.812Z,12.10
2019-05-09T21:27:11.685Z,12.00
2019-05-09T21:29:41.503Z,12.00
2019-05-09T21:32:11.322Z,12.00
2019-05-09T21:34:47.175Z,11.90
2019-05-09T21:37:17.220Z,11.90
2019-05-09T21:39:48.415Z,11.90
2019-05-09T21:42:18.071Z,11.90
2019-05-09T21:44:47.729Z,11.90
2019-05-09T21:47:17.368Z,11.90
2019-05-09T21:49:46.971Z,11.90
2019-05-09T21:52:16.640Z,11.90
2019-05-09T21:54:46.208Z,11.80
2019-05-09T21:57:16.896Z,11.80
2019-05-09T21:59:46.476Z,11.70
2019-05-09T22:02:16.252Z,11.80
2019-05-09T22:04:46.054Z,11.70
2019-05-09T22:07:15.635Z,11.70
2019-05-09T22:09:45.125Z,11.80
2019-05-09T22:12:14.730Z,11.80
2019-05-09T22:14:44.341Z,11.80
2019-05-09T22:17:15.560Z,11.80
2019-05-09T22:19:45.146Z,11.80
2019-05-09T22:22:14.808Z,11.80
2019-05-09T22:24:44.267Z,11.70
2019-05-09T22:27:13.929Z,11.70
2019-05-09T22:29:44.472Z,11.60
2019-05-09T22:32:14.127Z,11.50
2019-05-09T22:34:43.755Z,11.40
2019-05-09T22:37:13.428Z,11.40
2019-05-09T22:39:43.067Z,11.20
2019-05-09T22:42:14.331Z,11.20
2019-05-09T22:44:43.925Z,11.10
2019-05-09T22:47:13.595Z,11.10
2019-05-09T22:49:43.138Z,11.00
2019-05-09T22:52:12.881Z,11.00
2019-05-09T22:54:42.461Z,10.90
2019-05-09T22:57:12.097Z,10.90
2019-05-09T22:59:41.732Z,10.80
2019-05-09T23:02:11.333Z,10.80
2019-05-09T23:04:40.836Z,10.80
2019-05-09T23:07:10.439Z,10.70
2019-05-09T23:09:40.041Z,10.70
2019-05-09T23:12:09.688Z,10.70
2019-05-09T23:14:39.392Z,10.70
2019-05-09T23:17:09.944Z,10.70
2019-05-09T23:19:39.582Z,10.70
2019-05-09T23:22:09.613Z,10.70
2019-05-09T23:24:40.119Z,10.70
2019-05-09T23:27:11.363Z,10.60
2019-05-09T23:29:40.906Z,10.60
2019-05-09T23:32:13.402Z,10.50
2019-05-09T23:34:43.017Z,10.50
2019-05-09T23:37:12.684Z,10.50
2019-05-09T23:39:43.970Z,10.50
2019-05-09T23:42:13.605Z,10.40
2019-05-09T23:44:43.205Z,10.40
2019-05-09T23:47:12.818Z,10.30
2019-05-09T23:49:42.409Z,10.30
2019-05-09T23:52:12.118Z,10.30
2019-05-09T23:54:46.410Z,10.30
2019-05-09T23:57:16.247Z,10.30
2019-05-09T23:59:49.294Z,10.30
